sensor_id;sensor_type;location;lat;lon;timestamp;temperature;humidity
15156;DHT22;7678;50.058;8.306;2022-08-05T00:01:32;25.50;64.10
15156;DHT22;7678;50.058;8.306;2022-08-05T00:04:03;25.20;66.10
15156;DHT22;7678;50.058;8.306;2022-08-05T00:06:34;25.30;64.80
15156;DHT22;7678;50.058;8.306;2022-08-05T00:09:02;25.20;66.40
15156;DHT22;7678;50.058;8.306;2022-08-05T00:11:38;25.00;69.30
15156;DHT22;7678;50.058;8.306;2022-08-05T00:14:21;24.90;72.00
15156;DHT22;7678;50.058;8.306;2022-08-05T00:16:56;24.90;73.20
15156;DHT22;7678;50.058;8.306;2022-08-05T00:19:27;24.80;74.30
15156;DHT22;7678;50.058;8.306;2022-08-05T00:22:09;24.90;74.80
15156;DHT22;7678;50.058;8.306;2022-08-05T00:24:37;24.90;75.80
15156;DHT22;7678;50.058;8.306;2022-08-05T00:27:08;24.90;76.40
15156;DHT22;7678;50.058;8.306;2022-08-05T00:29:42;24.70;79.80
15156;DHT22;7678;50.058;8.306;2022-08-05T00:32:14;24.50;82.10
15156;DHT22;7678;50.058;8.306;2022-08-05T00:34:43;24.60;81.30
15156;DHT22;7678;50.058;8.306;2022-08-05T00:37:32;24.50;80.70
15156;DHT22;7678;50.058;8.306;2022-08-05T00:40:20;24.50;80.40
15156;DHT22;7678;50.058;8.306;2022-08-05T00:42:55;22.90;99.90
15156;DHT22;7678;50.058;8.306;2022-08-05T00:45:23;22.20;99.90
15156;DHT22;7678;50.058;8.306;2022-08-05T00:48:11;22.30;99.90
15156;DHT22;7678;50.058;8.306;2022-08-05T00:50:42;22.30;99.90
15156;DHT22;7678;50.058;8.306;2022-08-05T00:53:12;22.40;99.90
15156;DHT22;7678;50.058;8.306;2022-08-05T00:56:02;22.50;99.90
15156;DHT22;7678;50.058;8.306;2022-08-05T00:58:30;22.60;99.90
15156;DHT22;7678;50.058;8.306;2022-08-05T01:01:00;22.50;99.90
15156;DHT22;7678;50.058;8.306;2022-08-05T01:03:37;22.60;99.90
15156;DHT22;7678;50.058;8.306;2022-08-05T01:06:07;22.50;99.90
15156;DHT22;7678;50.058;8.306;2022-08-05T01:08:41;22.60;99.90
15156;DHT22;7678;50.058;8.306;2022-08-05T01:11:13;22.40;99.90
15156;DHT22;7678;50.058;8.306;2022-08-05T01:13:59;22.00;99.90
15156;DHT22;7678;50.058;8.306;2022-08-05T01:16:39;22.00;99.90
15156;DHT22;7678;50.058;8.306;2022-08-05T01:19:29;22.20;99.90
15156;DHT22;7678;50.058;8.306;2022-08-05T01:22:39;21.60;99.90
15156;DHT22;7678;50.058;8.306;2022-08-05T01:28:26;21.40;99.90
15156;DHT22;7678;50.058;8.306;2022-08-05T01:31:00;21.60;99.90
15156;DHT22;7678;50.058;8.306;2022-08-05T01:33:33;21.50;99.90
15156;DHT22;7678;50.058;8.306;2022-08-05T01:36:08;21.00;99.90
15156;DHT22;7678;50.058;8.306;2022-08-05T01:38:39;20.80;99.90
15156;DHT22;7678;50.058;8.306;2022-08-05T01:41:10;20.70;99.90
15156;DHT22;7678;50.058;8.306;2022-08-05T01:43:42;20.70;99.90
15156;DHT22;7678;50.058;8.306;2022-08-05T01:46:15;21.10;99.90
15156;DHT22;7678;50.058;8.306;2022-08-05T01:49:04;20.90;99.90
15156;DHT22;7678;50.058;8.306;2022-08-05T01:51:53;21.10;99.90
15156;DHT22;7678;50.058;8.306;2022-08-05T01:54:26;21.10;99.90
15156;DHT22;7678;50.058;8.306;2022-08-05T01:56:56;21.10;99.90
15156;DHT22;7678;50.058;8.306;2022-08-05T01:59:48;21.30;99.90
15156;DHT22;7678;50.058;8.306;2022-08-05T02:02:19;21.10;99.90
15156;DHT22;7678;50.058;8.306;2022-08-05T02:04:56;21.10;99.90
15156;DHT22;7678;50.058;8.306;2022-08-05T02:07:26;20.90;99.90
15156;DHT22;7678;50.058;8.306;2022-08-05T02:09:56;20.90;99.90
15156;DHT22;7678;50.058;8.306;2022-08-05T02:12:32;20.80;99.90
15156;DHT22;7678;50.058;8.306;2022-08-05T02:15:07;21.20;99.90
15156;DHT22;7678;50.058;8.306;2022-08-05T02:17:43;21.10;99.90
15156;DHT22;7678;50.058;8.306;2022-08-05T02:20:46;21.30;99.90
15156;DHT22;7678;50.058;8.306;2022-08-05T02:23:17;21.30;99.90
15156;DHT22;7678;50.058;8.306;2022-08-05T02:25:48;21.60;99.90
15156;DHT22;7678;50.058;8.306;2022-08-05T02:28:22;21.50;99.90
15156;DHT22;7678;50.058;8.306;2022-08-05T02:31:01;21.40;99.90
15156;DHT22;7678;50.058;8.306;2022-08-05T02:33:35;21.50;99.90
15156;DHT22;7678;50.058;8.306;2022-08-05T02:36:09;21.70;99.90
15156;DHT22;7678;50.058;8.306;2022-08-05T02:38:42;21.70;99.90
15156;DHT22;7678;50.058;8.306;2022-08-05T02:41:21;21.50;99.90
15156;DHT22;7678;50.058;8.306;2022-08-05T02:43:55;21.40;99.90
15156;DHT22;7678;50.058;8.306;2022-08-05T02:46:40;21.30;99.90
15156;DHT22;7678;50.058;8.306;2022-08-05T02:49:28;21.40;99.90
15156;DHT22;7678;50.058;8.306;2022-08-05T02:52:06;21.20;99.90
15156;DHT22;7678;50.058;8.306;2022-08-05T02:54:38;21.30;99.90
15156;DHT22;7678;50.058;8.306;2022-08-05T02:57:17;21.10;99.90
15156;DHT22;7678;50.058;8.306;2022-08-05T03:00:07;21.10;99.90
15156;DHT22;7678;50.058;8.306;2022-08-05T03:02:39;21.10;99.90
15156;DHT22;7678;50.058;8.306;2022-08-05T03:05:11;21.00;99.90
15156;DHT22;7678;50.058;8.306;2022-08-05T03:07:41;21.10;99.90
15156;DHT22;7678;50.058;8.306;2022-08-05T03:10:29;21.10;99.90
15156;DHT22;7678;50.058;8.306;2022-08-05T03:12:59;21.00;99.90
15156;DHT22;7678;50.058;8.306;2022-08-05T03:15:29;21.20;99.90
15156;DHT22;7678;50.058;8.306;2022-08-05T03:18:00;21.20;99.90
15156;DHT22;7678;50.058;8.306;2022-08-05T03:20:29;21.10;99.90
15156;DHT22;7678;50.058;8.306;2022-08-05T03:22:59;20.90;99.90
15156;DHT22;7678;50.058;8.306;2022-08-05T03:25:30;20.90;99.90
15156;DHT22;7678;50.058;8.306;2022-08-05T03:28:18;21.00;99.90
15156;DHT22;7678;50.058;8.306;2022-08-05T03:30:47;21.10;99.90
15156;DHT22;7678;50.058;8.306;2022-08-05T03:33:22;21.10;99.90
15156;DHT22;7678;50.058;8.306;2022-08-05T03:36:11;21.20;99.90
15156;DHT22;7678;50.058;8.306;2022-08-05T03:38:40;21.20;99.90
15156;DHT22;7678;50.058;8.306;2022-08-05T03:41:18;21.30;99.90
15156;DHT22;7678;50.058;8.306;2022-08-05T03:43:49;21.30;99.90
15156;DHT22;7678;50.058;8.306;2022-08-05T03:46:37;21.30;99.90
15156;DHT22;7678;50.058;8.306;2022-08-05T03:49:06;21.30;99.90
15156;DHT22;7678;50.058;8.306;2022-08-05T03:51:41;21.30;99.90
15156;DHT22;7678;50.058;8.306;2022-08-05T03:54:37;21.40;99.90
15156;DHT22;7678;50.058;8.306;2022-08-05T03:57:31;21.40;99.90
15156;DHT22;7678;50.058;8.306;2022-08-05T04:00:10;21.40;99.90
15156;DHT22;7678;50.058;8.306;2022-08-05T04:02:43;21.40;99.90
15156;DHT22;7678;50.058;8.306;2022-08-05T04:05:28;21.60;99.90
15156;DHT22;7678;50.058;8.306;2022-08-05T04:08:01;21.50;99.90
15156;DHT22;7678;50.058;8.306;2022-08-05T04:10:50;21.50;99.90
15156;DHT22;7678;50.058;8.306;2022-08-05T04:13:18;21.50;99.90
15156;DHT22;7678;50.058;8.306;2022-08-05T04:15:48;21.50;99.90
15156;DHT22;7678;50.058;8.306;2022-08-05T04:18:29;21.50;99.90
15156;DHT22;7678;50.058;8.306;2022-08-05T04:21:02;21.80;99.90
15156;DHT22;7678;50.058;8.306;2022-08-05T04:23:31;21.70;99.90
15156;DHT22;7678;50.058;8.306;2022-08-05T04:26:19;21.60;99.90
15156;DHT22;7678;50.058;8.306;2022-08-05T04:28:47;21.60;99.90
15156;DHT22;7678;50.058;8.306;2022-08-05T04:31:17;21.50;99.90
15156;DHT22;7678;50.058;8.306;2022-08-05T04:33:49;21.60;99.90
15156;DHT22;7678;50.058;8.306;2022-08-05T04:36:38;21.70;99.90
15156;DHT22;7678;50.058;8.306;2022-08-05T04:39:16;21.60;99.90
15156;DHT22;7678;50.058;8.306;2022-08-05T04:41:46;21.60;99.90
15156;DHT22;7678;50.058;8.306;2022-08-05T04:44:17;21.60;99.90
15156;DHT22;7678;50.058;8.306;2022-08-05T04:46:55;21.50;99.90
15156;DHT22;7678;50.058;8.306;2022-08-05T04:49:24;21.60;99.90
15156;DHT22;7678;50.058;8.306;2022-08-05T04:52:14;21.50;99.90
15156;DHT22;7678;50.058;8.306;2022-08-05T04:54:42;21.60;99.90
15156;DHT22;7678;50.058;8.306;2022-08-05T04:57:10;21.70;99.90
15156;DHT22;7678;50.058;8.306;2022-08-05T04:59:38;21.80;99.90
15156;DHT22;7678;50.058;8.306;2022-08-05T05:02:06;21.80;99.90
15156;DHT22;7678;50.058;8.306;2022-08-05T05:04:54;22.00;99.90
15156;DHT22;7678;50.058;8.306;2022-08-05T05:07:29;22.00;99.90
15156;DHT22;7678;50.058;8.306;2022-08-05T05:10:01;22.00;99.90
15156;DHT22;7678;50.058;8.306;2022-08-05T05:12:32;21.90;99.90
15156;DHT22;7678;50.058;8.306;2022-08-05T05:15:03;21.80;99.90
15156;DHT22;7678;50.058;8.306;2022-08-05T05:17:37;21.80;99.90
15156;DHT22;7678;50.058;8.306;2022-08-05T05:20:23;21.90;99.90
15156;DHT22;7678;50.058;8.306;2022-08-05T05:22:55;21.80;99.90
15156;DHT22;7678;50.058;8.306;2022-08-05T05:25:23;21.90;99.90
15156;DHT22;7678;50.058;8.306;2022-08-05T05:28:06;21.80;99.90
15156;DHT22;7678;50.058;8.306;2022-08-05T05:30:35;22.00;99.90
15156;DHT22;7678;50.058;8.306;2022-08-05T05:33:04;22.10;99.90
15156;DHT22;7678;50.058;8.306;2022-08-05T05:35:43;22.20;99.90
15156;DHT22;7678;50.058;8.306;2022-08-05T05:38:17;22.30;99.90
15156;DHT22;7678;50.058;8.306;2022-08-05T05:40:53;22.40;99.90
15156;DHT22;7678;50.058;8.306;2022-08-05T05:43:22;22.30;99.90
15156;DHT22;7678;50.058;8.306;2022-08-05T05:46:11;22.30;99.90
15156;DHT22;7678;50.058;8.306;2022-08-05T05:48:42;22.20;99.90
15156;DHT22;7678;50.058;8.306;2022-08-05T05:51:17;22.20;99.90
15156;DHT22;7678;50.058;8.306;2022-08-05T05:53:47;22.00;99.90
15156;DHT22;7678;50.058;8.306;2022-08-05T05:56:25;22.00;99.90
15156;DHT22;7678;50.058;8.306;2022-08-05T05:59:00;22.00;99.90
15156;DHT22;7678;50.058;8.306;2022-08-05T06:01:32;22.10;99.90
15156;DHT22;7678;50.058;8.306;2022-08-05T06:04:05;22.10;99.90
15156;DHT22;7678;50.058;8.306;2022-08-05T06:06:37;21.80;99.90
15156;DHT22;7678;50.058;8.306;2022-08-05T06:09:09;21.90;99.90
15156;DHT22;7678;50.058;8.306;2022-08-05T06:11:52;22.10;99.90
15156;DHT22;7678;50.058;8.306;2022-08-05T06:14:28;22.30;99.90
15156;DHT22;7678;50.058;8.306;2022-08-05T06:16:56;22.20;99.90
15156;DHT22;7678;50.058;8.306;2022-08-05T06:19:26;22.20;99.90
15156;DHT22;7678;50.058;8.306;2022-08-05T06:22:01;22.40;99.90
15156;DHT22;7678;50.058;8.306;2022-08-05T06:24:30;22.40;99.90
15156;DHT22;7678;50.058;8.306;2022-08-05T06:27:06;22.30;99.90
15156;DHT22;7678;50.058;8.306;2022-08-05T06:29:54;22.40;99.90
15156;DHT22;7678;50.058;8.306;2022-08-05T06:32:42;22.30;99.90
15156;DHT22;7678;50.058;8.306;2022-08-05T06:35:14;22.50;99.90
15156;DHT22;7678;50.058;8.306;2022-08-05T06:38:03;22.60;99.90
15156;DHT22;7678;50.058;8.306;2022-08-05T06:40:38;22.50;99.90
15156;DHT22;7678;50.058;8.306;2022-08-05T06:43:10;22.40;99.90
15156;DHT22;7678;50.058;8.306;2022-08-05T06:45:58;22.40;99.90
15156;DHT22;7678;50.058;8.306;2022-08-05T06:48:33;22.70;99.90
15156;DHT22;7678;50.058;8.306;2022-08-05T06:51:21;23.00;99.90
15156;DHT22;7678;50.058;8.306;2022-08-05T06:53:57;23.00;99.90
15156;DHT22;7678;50.058;8.306;2022-08-05T06:56:27;23.20;99.90
15156;DHT22;7678;50.058;8.306;2022-08-05T06:58:59;23.30;99.90
15156;DHT22;7678;50.058;8.306;2022-08-05T07:01:27;23.40;99.90
15156;DHT22;7678;50.058;8.306;2022-08-05T07:03:59;23.50;99.90
15156;DHT22;7678;50.058;8.306;2022-08-05T07:06:30;23.50;99.90
15156;DHT22;7678;50.058;8.306;2022-08-05T07:08:58;23.60;99.90
15156;DHT22;7678;50.058;8.306;2022-08-05T07:11:34;23.40;99.90
15156;DHT22;7678;50.058;8.306;2022-08-05T07:14:05;23.30;99.90
15156;DHT22;7678;50.058;8.306;2022-08-05T07:16:56;23.40;99.90
15156;DHT22;7678;50.058;8.306;2022-08-05T07:19:48;23.60;99.90
15156;DHT22;7678;50.058;8.306;2022-08-05T07:22:38;23.60;99.90
15156;DHT22;7678;50.058;8.306;2022-08-05T07:25:08;23.80;99.90
15156;DHT22;7678;50.058;8.306;2022-08-05T07:27:58;23.90;99.90
15156;DHT22;7678;50.058;8.306;2022-08-05T07:30:34;23.90;98.80
15156;DHT22;7678;50.058;8.306;2022-08-05T07:33:07;24.10;96.80
15156;DHT22;7678;50.058;8.306;2022-08-05T07:35:43;24.10;97.00
15156;DHT22;7678;50.058;8.306;2022-08-05T07:38:32;24.10;95.80
15156;DHT22;7678;50.058;8.306;2022-08-05T07:41:13;24.30;96.30
15156;DHT22;7678;50.058;8.306;2022-08-05T07:44:04;24.30;96.50
15156;DHT22;7678;50.058;8.306;2022-08-05T07:46:45;24.20;94.30
15156;DHT22;7678;50.058;8.306;2022-08-05T07:49:15;24.20;96.30
15156;DHT22;7678;50.058;8.306;2022-08-05T07:51:45;24.20;95.10
15156;DHT22;7678;50.058;8.306;2022-08-05T07:54:21;24.10;94.20
15156;DHT22;7678;50.058;8.306;2022-08-05T07:56:57;24.10;93.70
15156;DHT22;7678;50.058;8.306;2022-08-05T07:59:46;24.20;93.30
15156;DHT22;7678;50.058;8.306;2022-08-05T08:02:14;24.30;93.00
15156;DHT22;7678;50.058;8.306;2022-08-05T08:04:45;24.30;91.20
15156;DHT22;7678;50.058;8.306;2022-08-05T08:07:14;24.10;92.50
15156;DHT22;7678;50.058;8.306;2022-08-05T08:09:44;24.30;91.80
15156;DHT22;7678;50.058;8.306;2022-08-05T08:12:14;24.40;91.20
15156;DHT22;7678;50.058;8.306;2022-08-05T08:15:04;24.60;90.40
15156;DHT22;7678;50.058;8.306;2022-08-05T08:17:41;24.60;87.20
15156;DHT22;7678;50.058;8.306;2022-08-05T08:20:18;24.80;85.50
15156;DHT22;7678;50.058;8.306;2022-08-05T08:23:06;24.70;82.70
15156;DHT22;7678;50.058;8.306;2022-08-05T08:25:54;24.50;81.40
15156;DHT22;7678;50.058;8.306;2022-08-05T08:28:28;24.50;83.70
15156;DHT22;7678;50.058;8.306;2022-08-05T08:31:17;24.70;81.60
15156;DHT22;7678;50.058;8.306;2022-08-05T08:33:48;24.90;75.20
15156;DHT22;7678;50.058;8.306;2022-08-05T08:36:18;25.00;80.50
15156;DHT22;7678;50.058;8.306;2022-08-05T08:39:06;25.00;73.90
15156;DHT22;7678;50.058;8.306;2022-08-05T08:41:42;24.90;74.10
15156;DHT22;7678;50.058;8.306;2022-08-05T08:44:19;24.90;73.20
15156;DHT22;7678;50.058;8.306;2022-08-05T08:47:09;24.90;70.50
15156;DHT22;7678;50.058;8.306;2022-08-05T08:50:01;24.90;71.60
15156;DHT22;7678;50.058;8.306;2022-08-05T08:52:53;25.00;68.70
15156;DHT22;7678;50.058;8.306;2022-08-05T08:55:24;25.20;67.30
15156;DHT22;7678;50.058;8.306;2022-08-05T08:58:14;25.10;68.70
15156;DHT22;7678;50.058;8.306;2022-08-05T09:00:43;25.00;69.30
15156;DHT22;7678;50.058;8.306;2022-08-05T09:03:15;25.00;66.60
15156;DHT22;7678;50.058;8.306;2022-08-05T09:05:49;24.80;68.30
15156;DHT22;7678;50.058;8.306;2022-08-05T09:08:37;24.90;67.80
15156;DHT22;7678;50.058;8.306;2022-08-05T09:11:06;24.90;69.80
15156;DHT22;7678;50.058;8.306;2022-08-05T09:13:41;25.00;67.40
15156;DHT22;7678;50.058;8.306;2022-08-05T09:16:30;25.10;66.80
15156;DHT22;7678;50.058;8.306;2022-08-05T09:18:59;24.90;68.00
15156;DHT22;7678;50.058;8.306;2022-08-05T09:21:32;24.90;68.70
15156;DHT22;7678;50.058;8.306;2022-08-05T09:24:21;24.80;68.20
15156;DHT22;7678;50.058;8.306;2022-08-05T09:26:51;24.70;69.10
15156;DHT22;7678;50.058;8.306;2022-08-05T09:29:36;24.70;70.00
15156;DHT22;7678;50.058;8.306;2022-08-05T09:32:13;24.50;69.90
15156;DHT22;7678;50.058;8.306;2022-08-05T09:35:13;24.70;73.00
15156;DHT22;7678;50.058;8.306;2022-08-05T09:37:54;24.80;67.60
15156;DHT22;7678;50.058;8.306;2022-08-05T09:40:46;24.70;65.80
15156;DHT22;7678;50.058;8.306;2022-08-05T09:43:27;24.90;65.70
15156;DHT22;7678;50.058;8.306;2022-08-05T09:46:23;25.00;65.20
15156;DHT22;7678;50.058;8.306;2022-08-05T09:48:55;25.20;62.30
15156;DHT22;7678;50.058;8.306;2022-08-05T09:51:45;25.20;62.30
15156;DHT22;7678;50.058;8.306;2022-08-05T09:54:17;25.30;62.90
15156;DHT22;7678;50.058;8.306;2022-08-05T09:56:57;25.30;60.50
15156;DHT22;7678;50.058;8.306;2022-08-05T09:59:27;25.10;62.50
15156;DHT22;7678;50.058;8.306;2022-08-05T10:02:03;25.10;60.20
15156;DHT22;7678;50.058;8.306;2022-08-05T10:04:35;25.00;61.70
15156;DHT22;7678;50.058;8.306;2022-08-05T10:07:07;25.20;66.00
15156;DHT22;7678;50.058;8.306;2022-08-05T10:09:33;25.40;62.00
15156;DHT22;7678;50.058;8.306;2022-08-05T10:12:11;25.30;65.10
15156;DHT22;7678;50.058;8.306;2022-08-05T10:15:13;25.20;67.50
15156;DHT22;7678;50.058;8.306;2022-08-05T10:17:43;25.40;64.50
15156;DHT22;7678;50.058;8.306;2022-08-05T10:20:23;25.50;63.00
15156;DHT22;7678;50.058;8.306;2022-08-05T10:22:53;25.50;63.00
15156;DHT22;7678;50.058;8.306;2022-08-05T10:25:24;25.50;62.00
15156;DHT22;7678;50.058;8.306;2022-08-05T10:27:52;25.70;64.10
15156;DHT22;7678;50.058;8.306;2022-08-05T10:30:41;25.50;61.20
15156;DHT22;7678;50.058;8.306;2022-08-05T10:33:31;25.60;65.90
15156;DHT22;7678;50.058;8.306;2022-08-05T10:36:03;25.50;65.10
15156;DHT22;7678;50.058;8.306;2022-08-05T10:38:34;25.80;64.50
15156;DHT22;7678;50.058;8.306;2022-08-05T10:41:14;25.90;63.70
15156;DHT22;7678;50.058;8.306;2022-08-05T10:43:56;25.70;65.20
15156;DHT22;7678;50.058;8.306;2022-08-05T10:46:42;25.80;64.40
15156;DHT22;7678;50.058;8.306;2022-08-05T10:49:11;25.60;65.20
15156;DHT22;7678;50.058;8.306;2022-08-05T10:51:43;25.60;64.30
15156;DHT22;7678;50.058;8.306;2022-08-05T10:54:45;25.50;65.90
15156;DHT22;7678;50.058;8.306;2022-08-05T10:57:26;25.50;64.50
15156;DHT22;7678;50.058;8.306;2022-08-05T11:00:10;25.70;67.30
15156;DHT22;7678;50.058;8.306;2022-08-05T11:03:18;25.60;65.00
15156;DHT22;7678;50.058;8.306;2022-08-05T11:06:11;25.30;66.90
15156;DHT22;7678;50.058;8.306;2022-08-05T11:09:17;25.20;67.80
15156;DHT22;7678;50.058;8.306;2022-08-05T11:12:42;24.70;73.40
15156;DHT22;7678;50.058;8.306;2022-08-05T11:15:19;24.90;76.50
15156;DHT22;7678;50.058;8.306;2022-08-05T11:17:48;24.80;74.20
15156;DHT22;7678;50.058;8.306;2022-08-05T11:20:36;25.00;74.30
15156;DHT22;7678;50.058;8.306;2022-08-05T11:23:35;25.10;72.00
15156;DHT22;7678;50.058;8.306;2022-08-05T11:26:24;25.60;70.50
15156;DHT22;7678;50.058;8.306;2022-08-05T11:29:01;25.90;64.60
15156;DHT22;7678;50.058;8.306;2022-08-05T11:31:41;26.10;67.00
15156;DHT22;7678;50.058;8.306;2022-08-05T11:34:35;26.50;63.40
15156;DHT22;7678;50.058;8.306;2022-08-05T11:37:04;27.00;62.50
15156;DHT22;7678;50.058;8.306;2022-08-05T11:39:52;27.20;61.50
15156;DHT22;7678;50.058;8.306;2022-08-05T11:42:26;27.10;59.70
15156;DHT22;7678;50.058;8.306;2022-08-05T11:45:02;26.70;62.10
15156;DHT22;7678;50.058;8.306;2022-08-05T11:47:31;27.10;60.80
15156;DHT22;7678;50.058;8.306;2022-08-05T11:50:15;27.30;59.70
15156;DHT22;7678;50.058;8.306;2022-08-05T11:52:44;27.70;55.60
15156;DHT22;7678;50.058;8.306;2022-08-05T11:55:16;27.90;55.80
15156;DHT22;7678;50.058;8.306;2022-08-05T11:57:46;27.90;54.70
15156;DHT22;7678;50.058;8.306;2022-08-05T12:00:35;27.80;57.80
15156;DHT22;7678;50.058;8.306;2022-08-05T12:03:16;27.70;57.40
15156;DHT22;7678;50.058;8.306;2022-08-05T12:06:02;27.90;56.40
15156;DHT22;7678;50.058;8.306;2022-08-05T12:08:43;27.90;55.60
15156;DHT22;7678;50.058;8.306;2022-08-05T12:11:18;27.50;56.30
15156;DHT22;7678;50.058;8.306;2022-08-05T12:13:55;26.50;60.80
15156;DHT22;7678;50.058;8.306;2022-08-05T12:16:33;26.10;63.70
15156;DHT22;7678;50.058;8.306;2022-08-05T12:19:05;25.80;67.50
15156;DHT22;7678;50.058;8.306;2022-08-05T12:22:08;26.10;65.70
15156;DHT22;7678;50.058;8.306;2022-08-05T12:24:51;26.20;63.20
15156;DHT22;7678;50.058;8.306;2022-08-05T12:27:46;26.00;63.90
15156;DHT22;7678;50.058;8.306;2022-08-05T12:30:39;26.20;63.30
15156;DHT22;7678;50.058;8.306;2022-08-05T12:33:22;26.60;61.70
15156;DHT22;7678;50.058;8.306;2022-08-05T12:36:28;27.00;59.70
15156;DHT22;7678;50.058;8.306;2022-08-05T12:39:04;27.00;60.40
15156;DHT22;7678;50.058;8.306;2022-08-05T12:41:56;27.00;57.10
15156;DHT22;7678;50.058;8.306;2022-08-05T12:45:07;26.80;58.90
15156;DHT22;7678;50.058;8.306;2022-08-05T12:51:20;26.80;58.60
15156;DHT22;7678;50.058;8.306;2022-08-05T12:54:30;26.80;57.00
15156;DHT22;7678;50.058;8.306;2022-08-05T12:57:26;26.30;57.30
15156;DHT22;7678;50.058;8.306;2022-08-05T13:00:29;26.40;59.10
15156;DHT22;7678;50.058;8.306;2022-08-05T13:03:43;26.30;58.50
15156;DHT22;7678;50.058;8.306;2022-08-05T13:09:56;25.10;79.80
15156;DHT22;7678;50.058;8.306;2022-08-05T13:12:42;24.70;86.50
15156;DHT22;7678;50.058;8.306;2022-08-05T13:15:57;24.80;92.00
15156;DHT22;7678;50.058;8.306;2022-08-05T13:18:50;25.10;85.60
15156;DHT22;7678;50.058;8.306;2022-08-05T13:21:51;25.40;83.00
15156;DHT22;7678;50.058;8.306;2022-08-05T13:24:37;25.50;75.50
15156;DHT22;7678;50.058;8.306;2022-08-05T13:27:31;25.00;77.00
15156;DHT22;7678;50.058;8.306;2022-08-05T13:30:19;24.60;79.10
15156;DHT22;7678;50.058;8.306;2022-08-05T13:33:06;24.30;84.30
15156;DHT22;7678;50.058;8.306;2022-08-05T13:35:49;24.20;92.60
15156;DHT22;7678;50.058;8.306;2022-08-05T13:38:49;22.90;99.90
15156;DHT22;7678;50.058;8.306;2022-08-05T13:41:55;21.80;99.90
15156;DHT22;7678;50.058;8.306;2022-08-05T13:44:43;21.60;99.90
15156;DHT22;7678;50.058;8.306;2022-08-05T13:47:24;21.80;99.90
15156;DHT22;7678;50.058;8.306;2022-08-05T13:50:16;22.40;99.90
15156;DHT22;7678;50.058;8.306;2022-08-05T13:52:48;22.70;99.90
15156;DHT22;7678;50.058;8.306;2022-08-05T13:55:26;22.60;99.90
15156;DHT22;7678;50.058;8.306;2022-08-05T13:58:21;22.80;99.90
15156;DHT22;7678;50.058;8.306;2022-08-05T14:01:04;22.80;99.90
15156;DHT22;7678;50.058;8.306;2022-08-05T14:03:41;22.90;99.90
15156;DHT22;7678;50.058;8.306;2022-08-05T14:06:27;22.80;99.90
15156;DHT22;7678;50.058;8.306;2022-08-05T14:09:10;22.60;99.90
15156;DHT22;7678;50.058;8.306;2022-08-05T14:12:02;22.90;99.90
15156;DHT22;7678;50.058;8.306;2022-08-05T14:14:46;23.30;99.90
15156;DHT22;7678;50.058;8.306;2022-08-05T14:17:23;23.10;95.40
15156;DHT22;7678;50.058;8.306;2022-08-05T14:20:10;23.20;95.40
15156;DHT22;7678;50.058;8.306;2022-08-05T14:23:07;23.00;95.60
15156;DHT22;7678;50.058;8.306;2022-08-05T14:25:54;23.40;95.50
15156;DHT22;7678;50.058;8.306;2022-08-05T14:28:35;23.00;90.50
15156;DHT22;7678;50.058;8.306;2022-08-05T14:31:21;22.70;91.10
15156;DHT22;7678;50.058;8.306;2022-08-05T14:34:09;22.50;92.00
15156;DHT22;7678;50.058;8.306;2022-08-05T14:37:01;22.40;91.80
15156;DHT22;7678;50.058;8.306;2022-08-05T14:39:52;22.30;91.60
15156;DHT22;7678;50.058;8.306;2022-08-05T14:42:44;22.20;90.50
15156;DHT22;7678;50.058;8.306;2022-08-05T14:45:31;22.20;91.00
15156;DHT22;7678;50.058;8.306;2022-08-05T14:48:25;22.10;93.90
15156;DHT22;7678;50.058;8.306;2022-08-05T14:51:15;22.10;89.50
15156;DHT22;7678;50.058;8.306;2022-08-05T14:53:51;21.80;87.00
15156;DHT22;7678;50.058;8.306;2022-08-05T14:56:54;21.70;87.50
15156;DHT22;7678;50.058;8.306;2022-08-05T14:59:50;21.90;86.40
15156;DHT22;7678;50.058;8.306;2022-08-05T15:02:39;21.80;85.80
15156;DHT22;7678;50.058;8.306;2022-08-05T15:08:50;21.90;86.30
15156;DHT22;7678;50.058;8.306;2022-08-05T15:11:39;21.80;87.20
15156;DHT22;7678;50.058;8.306;2022-08-05T15:14:32;21.70;87.10
15156;DHT22;7678;50.058;8.306;2022-08-05T15:17:23;21.80;88.20
15156;DHT22;7678;50.058;8.306;2022-08-05T15:20:19;21.80;90.60
15156;DHT22;7678;50.058;8.306;2022-08-05T15:23:07;22.00;87.50
15156;DHT22;7678;50.058;8.306;2022-08-05T15:25:46;21.90;88.60
15156;DHT22;7678;50.058;8.306;2022-08-05T15:28:22;21.90;87.40
15156;DHT22;7678;50.058;8.306;2022-08-05T15:30:53;21.90;86.90
15156;DHT22;7678;50.058;8.306;2022-08-05T15:33:22;22.00;84.80
15156;DHT22;7678;50.058;8.306;2022-08-05T15:36:11;22.20;82.00
15156;DHT22;7678;50.058;8.306;2022-08-05T15:38:50;22.20;83.30
15156;DHT22;7678;50.058;8.306;2022-08-05T15:41:41;22.00;84.10
15156;DHT22;7678;50.058;8.306;2022-08-05T15:44:24;22.00;85.70
15156;DHT22;7678;50.058;8.306;2022-08-05T15:47:00;21.70;83.90
15156;DHT22;7678;50.058;8.306;2022-08-05T15:49:29;21.70;86.40
15156;DHT22;7678;50.058;8.306;2022-08-05T15:52:19;21.90;84.20
15156;DHT22;7678;50.058;8.306;2022-08-05T15:55:09;22.00;80.70
15156;DHT22;7678;50.058;8.306;2022-08-05T15:57:44;21.90;80.60
15156;DHT22;7678;50.058;8.306;2022-08-05T16:00:16;22.10;77.90
15156;DHT22;7678;50.058;8.306;2022-08-05T16:03:05;22.10;76.50
15156;DHT22;7678;50.058;8.306;2022-08-05T16:05:33;22.20;77.30
15156;DHT22;7678;50.058;8.306;2022-08-05T16:08:06;22.70;75.10
15156;DHT22;7678;50.058;8.306;2022-08-05T16:10:34;23.00;72.00
15156;DHT22;7678;50.058;8.306;2022-08-05T16:13:03;22.70;73.00
15156;DHT22;7678;50.058;8.306;2022-08-05T16:15:33;22.60;71.00
15156;DHT22;7678;50.058;8.306;2022-08-05T16:18:11;22.60;71.80
15156;DHT22;7678;50.058;8.306;2022-08-05T16:20:49;22.50;70.10
15156;DHT22;7678;50.058;8.306;2022-08-05T16:23:21;22.40;71.70
15156;DHT22;7678;50.058;8.306;2022-08-05T16:26:06;22.40;69.80
15156;DHT22;7678;50.058;8.306;2022-08-05T16:28:39;22.40;67.60
15156;DHT22;7678;50.058;8.306;2022-08-05T16:31:12;22.30;67.30
15156;DHT22;7678;50.058;8.306;2022-08-05T16:33:43;22.30;63.30
15156;DHT22;7678;50.058;8.306;2022-08-05T16:36:16;22.10;64.60
15156;DHT22;7678;50.058;8.306;2022-08-05T16:38:54;22.00;62.80
15156;DHT22;7678;50.058;8.306;2022-08-05T16:41:30;22.00;63.60
15156;DHT22;7678;50.058;8.306;2022-08-05T16:44:21;22.00;63.10
15156;DHT22;7678;50.058;8.306;2022-08-05T16:46:55;22.00;64.90
15156;DHT22;7678;50.058;8.306;2022-08-05T16:49:24;22.00;64.30
15156;DHT22;7678;50.058;8.306;2022-08-05T16:51:54;22.10;64.70
15156;DHT22;7678;50.058;8.306;2022-08-05T16:54:24;22.00;61.50
15156;DHT22;7678;50.058;8.306;2022-08-05T16:56:59;21.80;64.30
15156;DHT22;7678;50.058;8.306;2022-08-05T16:59:28;21.90;62.80
15156;DHT22;7678;50.058;8.306;2022-08-05T17:01:56;22.20;65.20
15156;DHT22;7678;50.058;8.306;2022-08-05T17:04:26;22.20;61.60
15156;DHT22;7678;50.058;8.306;2022-08-05T17:06:56;22.20;59.80
15156;DHT22;7678;50.058;8.306;2022-08-05T17:09:29;22.20;60.60
15156;DHT22;7678;50.058;8.306;2022-08-05T17:12:17;22.20;61.40
15156;DHT22;7678;50.058;8.306;2022-08-05T17:14:48;22.20;61.40
15156;DHT22;7678;50.058;8.306;2022-08-05T17:17:17;22.30;62.80